Cushing, Oklahoma
Current Conditions -  °F | °C
As of 11:15 PM on Sunday 19 Oct 2014 (Local Time) from KCUH Reporting Station
Clear Clear  
Wind Chill: 57°   Ceiling: Unl
Heat Index: 57°   Visibility: 10mi
Dew Point: 54°   Wind: 5mph
Humidity: 88%   Direction: 190°S
Pressure: 30.05"   Gusts: NA
Location:  35.99°N, 96.77°W
Report Text: KCUH 200415Z AUTO 19004KT 10SM CLR 14/12 A3005 RMK AO2
Loading
Personal Weather Stations






























Interactive Weather Map New forecast layout! Learn more

10-Day Weather Forecast

Advertisements
Track Severe Weather on mobile